sensor_id;sensor_type;location;lat;lon;timestamp;pressure;altitude;pressure_sealevel;temperature;humidity
6387;BME280;3226;42.162;24.756;2023-05-11T00:01:05;100121.25;;;8.45;98.87
6387;BME280;3226;42.162;24.756;2023-05-11T00:03:33;100142.06;;;8.59;100.00
6387;BME280;3226;42.162;24.756;2023-05-11T00:06:02;100140.97;;;8.49;100.00
6387;BME280;3226;42.162;24.756;2023-05-11T00:08:30;100150.00;;;8.58;100.00
6387;BME280;3226;42.162;24.756;2023-05-11T00:10:58;100141.47;;;8.68;99.98
6387;BME280;3226;42.162;24.756;2023-05-11T00:13:27;100147.81;;;8.77;99.89
6387;BME280;3226;42.162;24.756;2023-05-11T00:15:56;100152.44;;;9.00;98.98
6387;BME280;3226;42.162;24.756;2023-05-11T00:18:25;100155.59;;;9.05;98.09
6387;BME280;3226;42.162;24.756;2023-05-11T00:20:53;100151.50;;;9.01;98.50
6387;BME280;3226;42.162;24.756;2023-05-11T00:23:22;100158.22;;;9.05;98.75
6387;BME280;3226;42.162;24.756;2023-05-11T00:25:50;100157.13;;;8.94;98.36
6387;BME280;3226;42.162;24.756;2023-05-11T00:28:18;100160.06;;;8.77;99.46
6387;BME280;3226;42.162;24.756;2023-05-11T00:30:46;100150.25;;;8.67;99.87
6387;BME280;3226;42.162;24.756;2023-05-11T00:33:13;100151.78;;;8.57;100.00
6387;BME280;3226;42.162;24.756;2023-05-11T00:35:43;100166.69;;;8.55;100.00
6387;BME280;3226;42.162;24.756;2023-05-11T00:38:11;100160.19;;;8.48;100.00
6387;BME280;3226;42.162;24.756;2023-05-11T00:40:39;100165.88;;;8.55;100.00
6387;BME280;3226;42.162;24.756;2023-05-11T00:43:07;100170.69;;;8.61;100.00
6387;BME280;3226;42.162;24.756;2023-05-11T00:45:35;100159.91;;;8.65;100.00
6387;BME280;3226;42.162;24.756;2023-05-11T00:48:03;100165.91;;;8.67;100.00
6387;BME280;3226;42.162;24.756;2023-05-11T00:50:31;100159.41;;;8.60;100.00
6387;BME280;3226;42.162;24.756;2023-05-11T00:53:00;100166.72;;;8.68;100.00
6387;BME280;3226;42.162;24.756;2023-05-11T00:55:29;100165.09;;;8.80;100.00
6387;BME280;3226;42.162;24.756;2023-05-11T00:57:57;100168.00;;;8.88;100.00
6387;BME280;3226;42.162;24.756;2023-05-11T01:00:26;100167.47;;;8.83;100.00
6387;BME280;3226;42.162;24.756;2023-05-11T01:02:54;100168.50;;;8.80;100.00
6387;BME280;3226;42.162;24.756;2023-05-11T01:05:24;100167.16;;;8.75;100.00
6387;BME280;3226;42.162;24.756;2023-05-11T01:08:01;100153.97;;;8.63;100.00
6387;BME280;3226;42.162;24.756;2023-05-11T01:10:37;100162.16;;;8.72;100.00
6387;BME280;3226;42.162;24.756;2023-05-11T01:13:15;100153.88;;;8.65;100.00
6387;BME280;3226;42.162;24.756;2023-05-11T01:15:47;100165.41;;;8.48;100.00
6387;BME280;3226;42.162;24.756;2023-05-11T01:18:21;100132.25;;;8.22;100.00
6387;BME280;3226;42.162;24.756;2023-05-11T01:20:55;100177.22;;;8.26;100.00
6387;BME280;3226;42.162;24.756;2023-05-11T01:23:43;100171.06;;;8.14;100.00
6387;BME280;3226;42.162;24.756;2023-05-11T01:26:28;100177.38;;;8.10;100.00
6387;BME280;3226;42.162;24.756;2023-05-11T01:29:29;100180.56;;;8.28;100.00
6387;BME280;3226;42.162;24.756;2023-05-11T01:32:06;100180.56;;;8.28;100.00
6387;BME280;3226;42.162;24.756;2023-05-11T01:34:38;100167.13;;;8.07;100.00
6387;BME280;3226;42.162;24.756;2023-05-11T01:37:09;100176.84;;;8.05;100.00
6387;BME280;3226;42.162;24.756;2023-05-11T01:39:42;100169.47;;;8.12;100.00
6387;BME280;3226;42.162;24.756;2023-05-11T01:42:13;100180.56;;;8.15;100.00
6387;BME280;3226;42.162;24.756;2023-05-11T01:44:46;100177.19;;;8.13;100.00
6387;BME280;3226;42.162;24.756;2023-05-11T01:47:19;100172.00;;;7.99;100.00
6387;BME280;3226;42.162;24.756;2023-05-11T01:49:49;100172.16;;;8.10;100.00
6387;BME280;3226;42.162;24.756;2023-05-11T01:52:19;100168.81;;;8.08;100.00
6387;BME280;3226;42.162;24.756;2023-05-11T01:54:48;100174.03;;;8.08;100.00
6387;BME280;3226;42.162;24.756;2023-05-11T01:57:19;100170.28;;;8.12;100.00
6387;BME280;3226;42.162;24.756;2023-05-11T01:59:49;100174.69;;;8.12;100.00
6387;BME280;3226;42.162;24.756;2023-05-11T02:02:19;100172.28;;;7.94;100.00
6387;BME280;3226;42.162;24.756;2023-05-11T02:04:49;100176.28;;;8.00;100.00
6387;BME280;3226;42.162;24.756;2023-05-11T02:07:18;100172.66;;;8.02;100.00
6387;BME280;3226;42.162;24.756;2023-05-11T02:09:47;100168.41;;;7.87;100.00
6387;BME280;3226;42.162;24.756;2023-05-11T02:12:17;100154.75;;;7.83;100.00
6387;BME280;3226;42.162;24.756;2023-05-11T02:14:46;100168.38;;;8.01;100.00
6387;BME280;3226;42.162;24.756;2023-05-11T02:17:16;100168.94;;;8.06;100.00
6387;BME280;3226;42.162;24.756;2023-05-11T02:19:47;100168.38;;;8.01;100.00
6387;BME280;3226;42.162;24.756;2023-05-11T02:22:16;100173.16;;;7.94;100.00
6387;BME280;3226;42.162;24.756;2023-05-11T02:24:46;100174.00;;;7.80;100.00
6387;BME280;3226;42.162;24.756;2023-05-11T02:27:15;100170.81;;;7.90;100.00
6387;BME280;3226;42.162;24.756;2023-05-11T02:29:43;100168.91;;;7.79;100.00
6387;BME280;3226;42.162;24.756;2023-05-11T02:32:14;100170.47;;;7.81;100.00
6387;BME280;3226;42.162;24.756;2023-05-11T02:34:50;100171.88;;;7.87;100.00
6387;BME280;3226;42.162;24.756;2023-05-11T02:37:23;100176.81;;;7.77;100.00
6387;BME280;3226;42.162;24.756;2023-05-11T02:39:57;100173.56;;;7.59;100.00
6387;BME280;3226;42.162;24.756;2023-05-11T02:42:26;100171.16;;;7.56;100.00
6387;BME280;3226;42.162;24.756;2023-05-11T02:44:59;100139.88;;;7.42;100.00
6387;BME280;3226;42.162;24.756;2023-05-11T02:47:32;100146.41;;;7.49;100.00
6387;BME280;3226;42.162;24.756;2023-05-11T02:50:05;100168.91;;;7.64;100.00
6387;BME280;3226;42.162;24.756;2023-05-11T02:52:35;100180.94;;;7.52;100.00
6387;BME280;3226;42.162;24.756;2023-05-11T02:55:08;100173.84;;;7.55;100.00
6387;BME280;3226;42.162;24.756;2023-05-11T02:57:37;100169.97;;;7.62;100.00
6387;BME280;3226;42.162;24.756;2023-05-11T03:00:07;100187.63;;;7.71;100.00
6387;BME280;3226;42.162;24.756;2023-05-11T03:02:35;100178.50;;;7.78;100.00
6387;BME280;3226;42.162;24.756;2023-05-11T03:05:05;100180.53;;;7.73;100.00
6387;BME280;3226;42.162;24.756;2023-05-11T03:07:34;100184.28;;;7.69;100.00
6387;BME280;3226;42.162;24.756;2023-05-11T03:10:02;100186.84;;;7.84;100.00
6387;BME280;3226;42.162;24.756;2023-05-11T03:12:30;100187.00;;;7.95;100.00
6387;BME280;3226;42.162;24.756;2023-05-11T03:15:01;100186.94;;;7.96;100.00
6387;BME280;3226;42.162;24.756;2023-05-11T03:17:29;100189.53;;;7.96;100.00
6387;BME280;3226;42.162;24.756;2023-05-11T03:19:58;100186.13;;;7.81;100.00
6387;BME280;3226;42.162;24.756;2023-05-11T03:22:31;100177.50;;;7.94;100.00
6387;BME280;3226;42.162;24.756;2023-05-11T03:24:59;100179.56;;;8.03;100.00
6387;BME280;3226;42.162;24.756;2023-05-11T03:27:30;100190.00;;;8.03;100.00
6387;BME280;3226;42.162;24.756;2023-05-11T03:30:01;100187.47;;;8.02;100.00
6387;BME280;3226;42.162;24.756;2023-05-11T03:32:29;100193.34;;;8.05;100.00
6387;BME280;3226;42.162;24.756;2023-05-11T03:34:57;100189.06;;;8.04;100.00
6387;BME280;3226;42.162;24.756;2023-05-11T03:37:25;100193.16;;;8.08;100.00
6387;BME280;3226;42.162;24.756;2023-05-11T03:39:58;100208.69;;;8.10;100.00
6387;BME280;3226;42.162;24.756;2023-05-11T03:42:28;100205.06;;;8.13;100.00
6387;BME280;3226;42.162;24.756;2023-05-11T03:44:58;100200.38;;;8.18;100.00
6387;BME280;3226;42.162;24.756;2023-05-11T03:47:27;100195.69;;;8.23;100.00
6387;BME280;3226;42.162;24.756;2023-05-11T03:49:57;100203.09;;;8.16;100.00
6387;BME280;3226;42.162;24.756;2023-05-11T03:52:25;100198.03;;;8.13;100.00
6387;BME280;3226;42.162;24.756;2023-05-11T03:54:53;100202.63;;;8.09;100.00
6387;BME280;3226;42.162;24.756;2023-05-11T03:57:25;100196.69;;;8.07;100.00
6387;BME280;3226;42.162;24.756;2023-05-11T03:59:53;100196.34;;;7.99;100.00
6387;BME280;3226;42.162;24.756;2023-05-11T04:02:21;100195.69;;;7.95;100.00
6387;BME280;3226;42.162;24.756;2023-05-11T04:04:50;100200.63;;;8.00;100.00
6387;BME280;3226;42.162;24.756;2023-05-11T04:07:19;100205.44;;;8.06;100.00
6387;BME280;3226;42.162;24.756;2023-05-11T04:09:47;100170.19;;;7.86;100.00
6387;BME280;3226;42.162;24.756;2023-05-11T04:12:15;100199.28;;;8.07;100.00
6387;BME280;3226;42.162;24.756;2023-05-11T04:14:44;100203.84;;;8.04;100.00
6387;BME280;3226;42.162;24.756;2023-05-11T04:17:12;100201.34;;;8.02;100.00
6387;BME280;3226;42.162;24.756;2023-05-11T04:19:40;100213.13;;;8.22;100.00
6387;BME280;3226;42.162;24.756;2023-05-11T04:22:08;100212.63;;;8.30;100.00
6387;BME280;3226;42.162;24.756;2023-05-11T04:24:37;100207.41;;;8.30;100.00
6387;BME280;3226;42.162;24.756;2023-05-11T04:27:05;100210.59;;;8.35;100.00
6387;BME280;3226;42.162;24.756;2023-05-11T04:29:33;100215.94;;;8.47;100.00
6387;BME280;3226;42.162;24.756;2023-05-11T04:32:03;100204.63;;;8.61;100.00
6387;BME280;3226;42.162;24.756;2023-05-11T04:34:31;100207.41;;;8.85;99.18
6387;BME280;3226;42.162;24.756;2023-05-11T04:36:59;100210.25;;;8.95;99.37
6387;BME280;3226;42.162;24.756;2023-05-11T04:39:32;100210.47;;;9.05;98.23
6387;BME280;3226;42.162;24.756;2023-05-11T04:42:00;100218.38;;;9.03;97.53
6387;BME280;3226;42.162;24.756;2023-05-11T04:44:28;100209.72;;;9.03;97.88
6387;BME280;3226;42.162;24.756;2023-05-11T04:46:56;100221.28;;;8.99;100.00
6387;BME280;3226;42.162;24.756;2023-05-11T04:49:26;100210.44;;;8.92;100.00
6387;BME280;3226;42.162;24.756;2023-05-11T04:51:54;100154.19;;;8.60;98.99
6387;BME280;3226;42.162;24.756;2023-05-11T04:54:22;100208.56;;;8.94;99.99
6387;BME280;3226;42.162;24.756;2023-05-11T04:56:50;100206.06;;;9.05;100.00
6387;BME280;3226;42.162;24.756;2023-05-11T04:59:18;100211.81;;;9.36;96.70
6387;BME280;3226;42.162;24.756;2023-05-11T05:01:46;100205.56;;;9.26;96.69
6387;BME280;3226;42.162;24.756;2023-05-11T05:04:14;100215.34;;;9.09;97.11
6387;BME280;3226;42.162;24.756;2023-05-11T05:06:43;100219.31;;;8.89;98.66
6387;BME280;3226;42.162;24.756;2023-05-11T05:09:12;100217.75;;;8.87;100.00
6387;BME280;3226;42.162;24.756;2023-05-11T05:11:40;100214.63;;;9.07;100.00
6387;BME280;3226;42.162;24.756;2023-05-11T05:14:08;100221.97;;;9.15;99.99
6387;BME280;3226;42.162;24.756;2023-05-11T05:16:36;100223.09;;;9.37;97.64
6387;BME280;3226;42.162;24.756;2023-05-11T05:19:04;100213.56;;;9.49;96.06
6387;BME280;3226;42.162;24.756;2023-05-11T05:21:32;100217.34;;;9.45;95.52
6387;BME280;3226;42.162;24.756;2023-05-11T05:24:03;100222.56;;;9.58;94.70
6387;BME280;3226;42.162;24.756;2023-05-11T05:26:32;100227.06;;;9.55;95.08
6387;BME280;3226;42.162;24.756;2023-05-11T05:29:00;100210.13;;;9.61;93.84
6387;BME280;3226;42.162;24.756;2023-05-11T05:31:28;100221.03;;;9.42;93.19
6387;BME280;3226;42.162;24.756;2023-05-11T05:33:56;100220.06;;;9.56;93.62
6387;BME280;3226;42.162;24.756;2023-05-11T05:36:24;100223.22;;;9.48;93.25
6387;BME280;3226;42.162;24.756;2023-05-11T05:38:52;100228.75;;;9.57;93.05
6387;BME280;3226;42.162;24.756;2023-05-11T05:41:21;100230.72;;;9.53;92.91
6387;BME280;3226;42.162;24.756;2023-05-11T05:43:49;100236.56;;;9.18;93.15
6387;BME280;3226;42.162;24.756;2023-05-11T05:46:17;100232.81;;;9.35;93.96
6387;BME280;3226;42.162;24.756;2023-05-11T05:48:45;100236.94;;;9.39;93.58
6387;BME280;3226;42.162;24.756;2023-05-11T05:51:13;100231.78;;;9.50;93.28
6387;BME280;3226;42.162;24.756;2023-05-11T05:53:41;100243.91;;;9.77;94.09
6387;BME280;3226;42.162;24.756;2023-05-11T05:56:09;100244.69;;;10.04;90.94
6387;BME280;3226;42.162;24.756;2023-05-11T05:58:39;100243.91;;;10.15;88.65
6387;BME280;3226;42.162;24.756;2023-05-11T06:01:07;100248.59;;;10.22;88.42
6387;BME280;3226;42.162;24.756;2023-05-11T06:03:35;100252.28;;;10.20;88.27
6387;BME280;3226;42.162;24.756;2023-05-11T06:06:04;100254.44;;;10.26;89.65
6387;BME280;3226;42.162;24.756;2023-05-11T06:08:32;100242.97;;;10.16;89.74
6387;BME280;3226;42.162;24.756;2023-05-11T06:11:00;100245.66;;;9.90;88.94
6387;BME280;3226;42.162;24.756;2023-05-11T06:13:28;100249.13;;;9.90;90.09
6387;BME280;3226;42.162;24.756;2023-05-11T06:15:57;100247.34;;;10.15;89.80
6387;BME280;3226;42.162;24.756;2023-05-11T06:18:25;100252.16;;;10.21;91.18
6387;BME280;3226;42.162;24.756;2023-05-11T06:20:53;100237.28;;;9.84;88.19
6387;BME280;3226;42.162;24.756;2023-05-11T06:23:21;100249.34;;;9.74;88.38
6387;BME280;3226;42.162;24.756;2023-05-11T06:25:49;100251.25;;;9.59;87.20
6387;BME280;3226;42.162;24.756;2023-05-11T06:28:17;100250.81;;;9.78;88.18
6387;BME280;3226;42.162;24.756;2023-05-11T06:30:45;100245.41;;;10.06;87.19
6387;BME280;3226;42.162;24.756;2023-05-11T06:33:15;100250.38;;;10.22;85.12
6387;BME280;3226;42.162;24.756;2023-05-11T06:35:43;100243.63;;;10.68;83.43
6387;BME280;3226;42.162;24.756;2023-05-11T06:38:11;100233.09;;;10.92;81.54
6387;BME280;3226;42.162;24.756;2023-05-11T06:40:39;100242.09;;;10.77;79.71
6387;BME280;3226;42.162;24.756;2023-05-11T06:43:06;100242.22;;;10.75;81.36
6387;BME280;3226;42.162;24.756;2023-05-11T06:45:34;100245.13;;;10.59;83.05
6387;BME280;3226;42.162;24.756;2023-05-11T06:48:03;100231.41;;;10.55;83.10
6387;BME280;3226;42.162;24.756;2023-05-11T06:50:32;100235.94;;;10.89;81.13
6387;BME280;3226;42.162;24.756;2023-05-11T06:53:00;100242.69;;;11.16;80.20
6387;BME280;3226;42.162;24.756;2023-05-11T06:55:28;100242.91;;;11.13;80.57
6387;BME280;3226;42.162;24.756;2023-05-11T06:57:56;100246.53;;;10.88;81.07
6387;BME280;3226;42.162;24.756;2023-05-11T07:00:24;100247.50;;;10.62;80.51
6387;BME280;3226;42.162;24.756;2023-05-11T07:02:52;100248.88;;;10.44;80.45
6387;BME280;3226;42.162;24.756;2023-05-11T07:05:20;100245.19;;;10.33;81.41
6387;BME280;3226;42.162;24.756;2023-05-11T07:07:50;100237.16;;;10.61;81.98
6387;BME280;3226;42.162;24.756;2023-05-11T07:10:18;100230.00;;;10.87;80.27
6387;BME280;3226;42.162;24.756;2023-05-11T07:12:46;100233.13;;;11.04;79.42
6387;BME280;3226;42.162;24.756;2023-05-11T07:15:14;100224.91;;;11.08;78.23
6387;BME280;3226;42.162;24.756;2023-05-11T07:17:42;100213.66;;;10.95;79.30
6387;BME280;3226;42.162;24.756;2023-05-11T07:20:13;100213.56;;;10.96;76.79
6387;BME280;3226;42.162;24.756;2023-05-11T07:22:42;100221.34;;;10.98;77.88
6387;BME280;3226;42.162;24.756;2023-05-11T07:25:11;100224.28;;;10.93;73.57
6387;BME280;3226;42.162;24.756;2023-05-11T07:27:39;100230.97;;;11.09;73.71
6387;BME280;3226;42.162;24.756;2023-05-11T07:30:07;100224.84;;;11.33;75.22
6387;BME280;3226;42.162;24.756;2023-05-11T07:32:36;100228.06;;;11.70;70.57
6387;BME280;3226;42.162;24.756;2023-05-11T07:35:05;100232.94;;;11.75;72.03
6387;BME280;3226;42.162;24.756;2023-05-11T07:37:33;100235.59;;;11.64;72.76
6387;BME280;3226;42.162;24.756;2023-05-11T07:40:01;100231.75;;;11.68;73.25
6387;BME280;3226;42.162;24.756;2023-05-11T07:42:31;100227.38;;;11.68;73.86
6387;BME280;3226;42.162;24.756;2023-05-11T07:44:59;100224.59;;;11.81;73.53
6387;BME280;3226;42.162;24.756;2023-05-11T07:47:27;100223.03;;;11.90;75.98
6387;BME280;3226;42.162;24.756;2023-05-11T07:49:55;100231.41;;;11.84;72.16
6387;BME280;3226;42.162;24.756;2023-05-11T07:52:23;100219.84;;;11.86;70.88
6387;BME280;3226;42.162;24.756;2023-05-11T07:54:51;100224.00;;;11.78;73.77
6387;BME280;3226;42.162;24.756;2023-05-11T07:57:19;100218.41;;;11.60;75.29
6387;BME280;3226;42.162;24.756;2023-05-11T07:59:48;100219.34;;;11.70;76.12
6387;BME280;3226;42.162;24.756;2023-05-11T08:02:16;100227.72;;;11.86;76.11
6387;BME280;3226;42.162;24.756;2023-05-11T08:04:45;100184.31;;;11.25;75.81
6387;BME280;3226;42.162;24.756;2023-05-11T08:07:13;100222.59;;;11.39;75.55
6387;BME280;3226;42.162;24.756;2023-05-11T08:09:41;100229.94;;;11.23;76.51
6387;BME280;3226;42.162;24.756;2023-05-11T08:12:09;100225.41;;;11.25;77.09
6387;BME280;3226;42.162;24.756;2023-05-11T08:14:37;100223.63;;;11.37;76.67
6387;BME280;3226;42.162;24.756;2023-05-11T08:17:07;100225.31;;;11.38;75.88
6387;BME280;3226;42.162;24.756;2023-05-11T08:19:35;100221.97;;;11.47;75.71
6387;BME280;3226;42.162;24.756;2023-05-11T08:22:03;100228.53;;;11.53;75.75
6387;BME280;3226;42.162;24.756;2023-05-11T08:24:31;100231.53;;;11.60;76.15
6387;BME280;3226;42.162;24.756;2023-05-11T08:26:59;100220.69;;;11.41;74.41
6387;BME280;3226;42.162;24.756;2023-05-11T08:29:28;100228.69;;;11.51;75.00
6387;BME280;3226;42.162;24.756;2023-05-11T08:31:56;100214.59;;;11.41;73.91
6387;BME280;3226;42.162;24.756;2023-05-11T08:34:26;100228.78;;;11.50;73.40
6387;BME280;3226;42.162;24.756;2023-05-11T08:36:54;100226.63;;;11.55;74.03
6387;BME280;3226;42.162;24.756;2023-05-11T08:39:22;100230.59;;;11.49;73.86
6387;BME280;3226;42.162;24.756;2023-05-11T08:42:10;100221.25;;;11.45;73.65
6387;BME280;3226;42.162;24.756;2023-05-11T08:44:41;100225.44;;;11.48;73.22
6387;BME280;3226;42.162;24.756;2023-05-11T08:47:10;100198.84;;;11.41;73.86
6387;BME280;3226;42.162;24.756;2023-05-11T08:49:42;100223.41;;;11.74;75.26
6387;BME280;3226;42.162;24.756;2023-05-11T08:52:13;100223.53;;;11.73;73.87
6387;BME280;3226;42.162;24.756;2023-05-11T08:54:40;100220.75;;;11.97;74.42
6387;BME280;3226;42.162;24.756;2023-05-11T08:57:09;100222.44;;;12.09;73.22
6387;BME280;3226;42.162;24.756;2023-05-11T08:59:38;100190.13;;;11.86;73.47
6387;BME280;3226;42.162;24.756;2023-05-11T09:02:09;100218.75;;;12.12;72.90
6387;BME280;3226;42.162;24.756;2023-05-11T09:04:40;100225.97;;;12.31;72.27
6387;BME280;3226;42.162;24.756;2023-05-11T09:07:13;100215.09;;;12.68;69.97
6387;BME280;3226;42.162;24.756;2023-05-11T09:09:42;100210.72;;;12.79;71.10
6387;BME280;3226;42.162;24.756;2023-05-11T09:12:10;100211.38;;;12.38;68.93
6387;BME280;3226;42.162;24.756;2023-05-11T09:14:39;100206.78;;;12.52;69.80
6387;BME280;3226;42.162;24.756;2023-05-11T09:17:07;100213.34;;;12.13;67.63
6387;BME280;3226;42.162;24.756;2023-05-11T09:19:35;100204.75;;;12.23;67.86
6387;BME280;3226;42.162;24.756;2023-05-11T09:22:04;100203.72;;;12.68;68.11
6387;BME280;3226;42.162;24.756;2023-05-11T09:24:33;100185.16;;;12.81;67.87
6387;BME280;3226;42.162;24.756;2023-05-11T09:27:05;100194.66;;;12.93;67.11
6387;BME280;3226;42.162;24.756;2023-05-11T09:29:35;100189.19;;;12.85;67.21
6387;BME280;3226;42.162;24.756;2023-05-11T09:32:03;100191.34;;;13.01;66.90
6387;BME280;3226;42.162;24.756;2023-05-11T09:34:31;100188.19;;;13.07;65.86
6387;BME280;3226;42.162;24.756;2023-05-11T09:36:59;100178.41;;;13.09;64.61
6387;BME280;3226;42.162;24.756;2023-05-11T09:39:28;100170.28;;;12.91;65.63
6387;BME280;3226;42.162;24.756;2023-05-11T09:42:15;100167.31;;;13.06;65.80
6387;BME280;3226;42.162;24.756;2023-05-11T09:44:44;100173.94;;;13.31;64.22
6387;BME280;3226;42.162;24.756;2023-05-11T09:47:14;100173.13;;;13.30;63.46
6387;BME280;3226;42.162;24.756;2023-05-11T09:49:44;100170.69;;;13.18;63.81
6387;BME280;3226;42.162;24.756;2023-05-11T09:52:14;100161.91;;;13.07;66.04
6387;BME280;3226;42.162;24.756;2023-05-11T09:54:44;100158.91;;;13.12;62.88
6387;BME280;3226;42.162;24.756;2023-05-11T09:57:25;100152.94;;;13.10;63.00
6387;BME280;3226;42.162;24.756;2023-05-11T09:59:54;100163.47;;;13.10;62.81
6387;BME280;3226;42.162;24.756;2023-05-11T10:02:23;100159.34;;;13.17;62.60
6387;BME280;3226;42.162;24.756;2023-05-11T10:04:53;100165.81;;;13.13;64.03
6387;BME280;3226;42.162;24.756;2023-05-11T10:07:28;100165.50;;;13.27;62.06
6387;BME280;3226;42.162;24.756;2023-05-11T10:09:58;100166.69;;;13.44;62.41
6387;BME280;3226;42.162;24.756;2023-05-11T10:12:28;100160.72;;;13.42;64.10
6387;BME280;3226;42.162;24.756;2023-05-11T10:15:01;100164.03;;;13.85;61.17
6387;BME280;3226;42.162;24.756;2023-05-11T10:17:30;100150.75;;;13.97;61.91
6387;BME280;3226;42.162;24.756;2023-05-11T10:19:59;100154.78;;;14.01;62.04
6387;BME280;3226;42.162;24.756;2023-05-11T10:22:30;100145.31;;;13.69;59.90
6387;BME280;3226;42.162;24.756;2023-05-11T10:24:58;100136.19;;;14.02;61.18
6387;BME280;3226;42.162;24.756;2023-05-11T10:27:30;100147.03;;;14.09;62.22
6387;BME280;3226;42.162;24.756;2023-05-11T10:29:58;100149.03;;;13.66;60.55
6387;BME280;3226;42.162;24.756;2023-05-11T10:32:27;100140.84;;;13.69;60.79
6387;BME280;3226;42.162;24.756;2023-05-11T10:34:56;100137.41;;;13.79;61.99
6387;BME280;3226;42.162;24.756;2023-05-11T10:37:25;100137.59;;;14.16;60.00
6387;BME280;3226;42.162;24.756;2023-05-11T10:39:54;100129.25;;;14.01;60.34
6387;BME280;3226;42.162;24.756;2023-05-11T10:42:34;100146.97;;;13.90;58.64
6387;BME280;3226;42.162;24.756;2023-05-11T10:45:18;100143.13;;;13.84;59.57
6387;BME280;3226;42.162;24.756;2023-05-11T10:48:02;100140.63;;;13.92;58.93
6387;BME280;3226;42.162;24.756;2023-05-11T10:50:46;100140.22;;;13.97;61.07
6387;BME280;3226;42.162;24.756;2023-05-11T10:53:39;100127.03;;;14.07;61.82
6387;BME280;3226;42.162;24.756;2023-05-11T10:56:22;100127.06;;;14.36;60.82
6387;BME280;3226;42.162;24.756;2023-05-11T10:59:15;100122.72;;;14.45;58.16
6387;BME280;3226;42.162;24.756;2023-05-11T11:01:49;100128.00;;;14.65;59.23
6387;BME280;3226;42.162;24.756;2023-05-11T11:04:18;100120.94;;;14.45;57.88
6387;BME280;3226;42.162;24.756;2023-05-11T11:06:46;100128.16;;;14.14;58.42
6387;BME280;3226;42.162;24.756;2023-05-11T11:09:14;100129.28;;;14.11;59.67
6387;BME280;3226;42.162;24.756;2023-05-11T11:11:44;100120.66;;;14.39;60.15
6387;BME280;3226;42.162;24.756;2023-05-11T11:14:14;100115.16;;;14.32;57.01
6387;BME280;3226;42.162;24.756;2023-05-11T11:17:21;100116.94;;;14.31;56.69
6387;BME280;3226;42.162;24.756;2023-05-11T11:19:49;100113.31;;;14.52;57.43
6387;BME280;3226;42.162;24.756;2023-05-11T11:22:43;100110.47;;;14.93;56.65
6387;BME280;3226;42.162;24.756;2023-05-11T11:25:14;100068.16;;;14.85;54.27
6387;BME280;3226;42.162;24.756;2023-05-11T11:27:56;100101.19;;;14.79;54.60
6387;BME280;3226;42.162;24.756;2023-05-11T11:30:27;100096.78;;;14.80;56.06
6387;BME280;3226;42.162;24.756;2023-05-11T11:33:30;100097.63;;;14.70;55.14
6387;BME280;3226;42.162;24.756;2023-05-11T11:35:58;100082.81;;;14.97;55.56
6387;BME280;3226;42.162;24.756;2023-05-11T11:38:26;100083.69;;;15.26;54.05
6387;BME280;3226;42.162;24.756;2023-05-11T11:40:55;100088.94;;;15.72;53.53
6387;BME280;3226;42.162;24.756;2023-05-11T11:43:24;100078.19;;;15.83;51.09
6387;BME280;3226;42.162;24.756;2023-05-11T11:45:55;100085.25;;;15.65;51.24
6387;BME280;3226;42.162;24.756;2023-05-11T11:48:31;100085.38;;;15.17;51.57
6387;BME280;3226;42.162;24.756;2023-05-11T11:51:03;100076.75;;;14.87;51.30
6387;BME280;3226;42.162;24.756;2023-05-11T11:54:04;100067.47;;;14.83;52.83
6387;BME280;3226;42.162;24.756;2023-05-11T11:56:39;100070.13;;;14.83;53.19
6387;BME280;3226;42.162;24.756;2023-05-11T11:59:07;100056.97;;;15.11;52.88
6387;BME280;3226;42.162;24.756;2023-05-11T12:01:42;100064.28;;;15.17;52.07
6387;BME280;3226;42.162;24.756;2023-05-11T12:04:38;100062.72;;;15.24;53.53
6387;BME280;3226;42.162;24.756;2023-05-11T12:07:11;100061.34;;;14.92;52.07
6387;BME280;3226;42.162;24.756;2023-05-11T12:09:40;100050.09;;;14.90;53.80
6387;BME280;3226;42.162;24.756;2023-05-11T12:12:08;100061.59;;;15.27;54.07
6387;BME280;3226;42.162;24.756;2023-05-11T12:14:38;100052.16;;;15.24;54.22
6387;BME280;3226;42.162;24.756;2023-05-11T12:17:07;100055.88;;;15.50;52.69
6387;BME280;3226;42.162;24.756;2023-05-11T12:19:42;100041.03;;;15.67;51.98
6387;BME280;3226;42.162;24.756;2023-05-11T12:22:11;100042.66;;;15.96;50.44
6387;BME280;3226;42.162;24.756;2023-05-11T12:24:41;100034.56;;;15.79;49.59
6387;BME280;3226;42.162;24.756;2023-05-11T12:27:09;100033.97;;;15.85;50.82
6387;BME280;3226;42.162;24.756;2023-05-11T12:29:37;100034.03;;;16.12;49.72
6387;BME280;3226;42.162;24.756;2023-05-11T12:32:11;100029.59;;;15.76;49.33
6387;BME280;3226;42.162;24.756;2023-05-11T12:34:40;100022.72;;;15.83;48.49
6387;BME280;3226;42.162;24.756;2023-05-11T12:37:08;100022.72;;;15.65;49.07
6387;BME280;3226;42.162;24.756;2023-05-11T12:39:36;100022.03;;;15.45;49.97
6387;BME280;3226;42.162;24.756;2023-05-11T12:42:05;100006.50;;;15.42;50.61
6387;BME280;3226;42.162;24.756;2023-05-11T12:44:33;100021.88;;;15.65;50.76
6387;BME280;3226;42.162;24.756;2023-05-11T12:47:02;100021.38;;;15.79;51.00
6387;BME280;3226;42.162;24.756;2023-05-11T12:49:31;100008.16;;;15.79;51.32
6387;BME280;3226;42.162;24.756;2023-05-11T12:52:02;99995.84;;;16.06;51.57
6387;BME280;3226;42.162;24.756;2023-05-11T12:54:34;99993.75;;;15.92;49.59
6387;BME280;3226;42.162;24.756;2023-05-11T12:57:05;99998.66;;;15.86;49.08
6387;BME280;3226;42.162;24.756;2023-05-11T12:59:36;99988.34;;;15.57;48.95
6387;BME280;3226;42.162;24.756;2023-05-11T13:02:09;99989.22;;;15.84;49.33
6387;BME280;3226;42.162;24.756;2023-05-11T13:04:40;99987.09;;;15.87;49.33
6387;BME280;3226;42.162;24.756;2023-05-11T13:07:10;99986.66;;;16.10;49.74
6387;BME280;3226;42.162;24.756;2023-05-11T13:09:38;99988.66;;;16.16;49.77
6387;BME280;3226;42.162;24.756;2023-05-11T13:12:08;99981.59;;;15.99;48.90
6387;BME280;3226;42.162;24.756;2023-05-11T13:14:36;99977.47;;;15.60;48.12
6387;BME280;3226;42.162;24.756;2023-05-11T13:17:05;99981.53;;;15.72;48.66
6387;BME280;3226;42.162;24.756;2023-05-11T13:19:33;99981.78;;;15.79;48.41